createdAt,value
2022-12-06T00:00:32.792Z,50.885654
2022-12-06T00:01:32.818Z,50.885670
2022-12-06T00:02:32.880Z,50.885628
2022-12-06T00:03:32.825Z,50.885536
2022-12-06T00:04:32.887Z,50.885605
2022-12-06T00:05:32.771Z,50.885624
2022-12-06T00:06:32.751Z,50.885578
2022-12-06T00:07:32.842Z,50.885548
2022-12-06T00:08:32.739Z,50.885571
2022-12-06T00:09:32.750Z,50.885571
2022-12-06T00:10:32.758Z,50.885616
2022-12-06T00:11:32.714Z,50.885647
2022-12-06T00:12:32.749Z,50.885498
2022-12-06T00:13:32.740Z,50.885429
2022-12-06T00:14:32.723Z,50.885574
2022-12-06T00:15:32.853Z,50.885784
2022-12-06T00:16:32.812Z,50.885632
2022-12-06T00:17:32.680Z,50.885658
2022-12-06T00:18:32.702Z,50.885620
2022-12-06T00:19:32.715Z,50.885628
2022-12-06T00:20:32.722Z,50.885540
2022-12-06T00:21:32.700Z,50.885532
2022-12-06T00:22:32.698Z,50.885635
2022-12-06T00:23:32.682Z,50.885620
2022-12-06T00:24:32.706Z,50.885635
2022-12-06T00:25:32.623Z,50.885609
2022-12-06T00:26:32.707Z,50.885612
2022-12-06T00:27:32.627Z,50.885662
2022-12-06T00:28:32.642Z,50.885578
2022-12-06T00:29:32.636Z,50.885563
2022-12-06T00:30:32.646Z,50.885471
2022-12-06T00:31:32.687Z,50.885521
2022-12-06T00:32:32.633Z,50.885605
2022-12-06T00:33:32.630Z,50.885582
2022-12-06T00:34:32.627Z,50.885525
2022-12-06T00:35:32.602Z,50.885586
2022-12-06T00:36:32.591Z,50.885571
2022-12-06T00:37:32.641Z,50.885593
2022-12-06T00:38:32.597Z,50.885658
2022-12-06T00:39:32.611Z,50.885601
2022-12-06T00:40:32.553Z,50.885502
2022-12-06T00:41:32.580Z,50.885563
2022-12-06T00:42:32.574Z,50.885612
2022-12-06T00:43:33.573Z,50.885563
2022-12-06T00:44:32.555Z,50.885551
2022-12-06T00:45:32.626Z,50.885532
2022-12-06T00:46:32.633Z,50.885502
2022-12-06T00:47:32.517Z,50.885548
2022-12-06T00:48:32.569Z,50.885483
2022-12-06T00:49:32.505Z,50.885479
2022-12-06T00:50:32.536Z,50.885483
2022-12-06T00:51:32.525Z,50.885494
2022-12-06T00:52:32.529Z,50.885506
2022-12-06T00:53:32.586Z,50.885502
2022-12-06T00:54:32.518Z,50.885487
2022-12-06T00:55:32.491Z,50.885502
2022-12-06T00:56:32.485Z,50.885437
2022-12-06T00:57:32.465Z,50.885410
2022-12-06T00:58:32.482Z,50.885448
2022-12-06T01:00:04.445Z,50.885502
2022-12-06T01:00:32.455Z,50.885574
2022-12-06T01:01:32.635Z,50.885513
2022-12-06T01:02:32.472Z,50.885521
2022-12-06T01:03:35.183Z,50.885513
2022-12-06T01:04:33.415Z,50.885487
2022-12-06T01:05:32.525Z,50.885548
2022-12-06T01:06:32.499Z,50.885456
2022-12-06T01:07:32.496Z,50.885521
2022-12-06T01:08:32.428Z,50.885632
2022-12-06T01:09:32.452Z,50.885635
2022-12-06T01:10:32.478Z,50.885605
2022-12-06T01:11:33.432Z,50.885624
2022-12-06T01:12:32.443Z,50.885559
2022-12-06T01:13:32.415Z,50.885571
2022-12-06T01:14:32.353Z,50.885483
2022-12-06T01:15:32.372Z,50.885445
2022-12-06T01:16:32.537Z,50.885601
2022-12-06T01:17:32.362Z,50.885635
2022-12-06T01:18:32.375Z,50.885605
2022-12-06T01:19:32.379Z,50.885521
2022-12-06T01:20:32.364Z,50.885578
2022-12-06T01:21:32.475Z,50.885605
2022-12-06T01:22:32.343Z,50.885567
2022-12-06T01:23:32.341Z,50.885578
2022-12-06T01:24:32.330Z,50.885609
2022-12-06T01:25:35.777Z,50.885540
2022-12-06T01:26:33.984Z,50.885559
2022-12-06T01:27:32.367Z,50.885693
2022-12-06T01:28:32.311Z,50.885670
2022-12-06T01:29:32.342Z,50.885521
2022-12-06T01:30:32.320Z,50.885563
2022-12-06T01:31:37.277Z,50.885578
2022-12-06T01:32:33.323Z,50.885582
2022-12-06T01:33:32.275Z,50.885502
2022-12-06T01:34:32.294Z,50.885559
2022-12-06T01:35:32.271Z,50.885647
2022-12-06T01:36:32.298Z,50.885487
2022-12-06T01:37:32.251Z,50.885448
2022-12-06T01:38:32.272Z,50.885128
2022-12-06T01:39:32.228Z,50.885208
2022-12-06T01:40:32.265Z,50.885513
2022-12-06T01:41:32.282Z,50.885071
2022-12-06T01:42:32.281Z,50.885265
2022-12-06T01:43:32.262Z,50.885414
2022-12-06T01:44:32.241Z,50.885361
2022-12-06T01:45:32.257Z,50.885521
2022-12-06T01:46:32.322Z,50.885544
2022-12-06T01:47:32.255Z,50.885441
2022-12-06T01:48:32.238Z,50.885391
2022-12-06T01:49:32.286Z,50.885338
2022-12-06T01:50:32.175Z,50.885281
2022-12-06T01:51:32.192Z,50.885235
2022-12-06T01:52:32.203Z,50.885410
2022-12-06T01:53:32.214Z,50.885460
2022-12-06T01:54:32.190Z,50.885372
2022-12-06T01:55:32.170Z,50.885262
2022-12-06T01:56:32.144Z,50.885391
2022-12-06T01:57:32.158Z,50.885448
2022-12-06T01:58:32.202Z,50.885406
2022-12-06T01:59:32.154Z,50.885403
2022-12-06T02:00:32.139Z,50.885548
2022-12-06T02:01:32.167Z,50.885616
2022-12-06T02:02:32.191Z,50.885609
2022-12-06T02:03:32.143Z,50.885494
2022-12-06T02:04:32.164Z,50.885582
2022-12-06T02:05:36.119Z,50.885559
2022-12-06T02:06:34.087Z,50.885601
2022-12-06T02:07:32.256Z,50.885578
2022-12-06T02:08:32.105Z,50.885597
2022-12-06T02:09:32.099Z,50.885616
2022-12-06T02:10:32.082Z,50.885582
2022-12-06T02:11:35.217Z,50.885582
2022-12-06T02:12:33.124Z,50.885479
2022-12-06T02:13:32.069Z,50.885506
2022-12-06T02:14:32.204Z,50.885422
2022-12-06T02:15:32.053Z,50.885605
2022-12-06T02:16:32.276Z,50.885635
2022-12-06T02:17:32.049Z,50.885654
2022-12-06T02:18:32.041Z,50.885616
2022-12-06T02:19:32.010Z,50.885670
2022-12-06T02:20:32.145Z,50.885822
2022-12-06T02:21:32.028Z,50.885841
2022-12-06T02:22:31.992Z,50.885498
2022-12-06T02:23:32.004Z,50.885590
2022-12-06T02:24:32.022Z,50.885677
2022-12-06T02:25:34.171Z,50.885544
2022-12-06T02:26:32.968Z,50.885490
2022-12-06T02:27:31.959Z,50.885654
2022-12-06T02:28:32.009Z,50.885651
2022-12-06T02:29:31.992Z,50.885757
2022-12-06T02:30:32.999Z,50.885563
2022-12-06T02:31:32.037Z,50.885410
2022-12-06T02:32:31.943Z,50.885551
2022-12-06T02:33:31.992Z,50.885422
2022-12-06T02:34:31.956Z,50.885578
2022-12-06T02:35:31.904Z,50.885544
2022-12-06T02:36:31.954Z,50.885555
2022-12-06T02:37:31.929Z,50.885597
2022-12-06T02:38:31.935Z,50.885700
2022-12-06T02:39:31.957Z,50.885754
2022-12-06T02:40:31.925Z,50.885593
2022-12-06T02:41:31.890Z,50.885574
2022-12-06T02:42:31.952Z,50.885574
2022-12-06T02:43:31.917Z,50.885513
2022-12-06T02:44:31.910Z,50.885460
2022-12-06T02:45:31.894Z,50.885567
2022-12-06T02:46:31.942Z,50.885586
2022-12-06T02:47:31.986Z,50.885609
2022-12-06T02:48:31.873Z,50.885353
2022-12-06T02:49:31.825Z,50.885574
2022-12-06T02:50:31.854Z,50.885498
2022-12-06T02:51:31.803Z,50.885525
2022-12-06T02:52:31.825Z,50.885555
2022-12-06T02:53:31.978Z,50.885540
2022-12-06T02:54:31.807Z,50.885578
2022-12-06T02:55:31.830Z,50.885643
2022-12-06T02:56:31.810Z,50.885418
2022-12-06T02:57:31.791Z,50.885468
2022-12-06T02:58:31.909Z,50.885517
2022-12-06T02:59:31.825Z,50.885586
2022-12-06T03:00:31.777Z,50.885582
2022-12-06T03:01:31.838Z,50.885586
2022-12-06T03:02:31.822Z,50.885475
2022-12-06T03:03:31.771Z,50.885555
2022-12-06T03:04:31.871Z,50.885513
2022-12-06T03:05:31.763Z,50.885593
2022-12-06T03:06:31.709Z,50.885628
2022-12-06T03:07:31.788Z,50.885674
2022-12-06T03:08:31.752Z,50.885674
2022-12-06T03:09:31.758Z,50.885498
2022-12-06T03:10:31.743Z,50.885456
2022-12-06T03:11:31.712Z,50.885292
2022-12-06T03:12:31.713Z,50.885391
2022-12-06T03:13:31.716Z,50.885529
2022-12-06T03:14:31.715Z,50.885483
2022-12-06T03:15:31.786Z,50.885242
2022-12-06T03:16:31.711Z,50.885029
2022-12-06T03:17:31.685Z,50.885429
2022-12-06T03:18:31.724Z,50.885387
2022-12-06T03:19:31.642Z,50.885452
2022-12-06T03:20:31.725Z,50.885479
2022-12-06T03:21:31.674Z,50.885429
2022-12-06T03:22:34.508Z,50.885399
2022-12-06T03:23:31.650Z,50.885376
2022-12-06T03:24:31.645Z,50.885525
2022-12-06T03:25:31.661Z,50.885479
2022-12-06T03:26:31.715Z,50.885471
2022-12-06T03:27:31.603Z,50.885540
2022-12-06T03:28:31.594Z,50.885475
2022-12-06T03:29:31.629Z,50.885494
2022-12-06T03:30:31.620Z,50.885513
2022-12-06T03:31:31.669Z,50.885624
2022-12-06T03:32:31.641Z,50.885571
2022-12-06T03:33:31.558Z,50.885586
2022-12-06T03:34:31.632Z,50.885540
2022-12-06T03:35:31.578Z,50.885540
2022-12-06T03:36:31.607Z,50.885525
2022-12-06T03:37:31.749Z,50.885586
2022-12-06T03:38:31.563Z,50.885536
2022-12-06T03:39:31.555Z,50.885609
2022-12-06T03:40:31.583Z,50.885525
2022-12-06T03:41:31.531Z,50.885513
2022-12-06T03:42:31.555Z,50.885551
2022-12-06T03:43:31.558Z,50.885521
2022-12-06T03:44:31.535Z,50.885433
2022-12-06T03:45:31.577Z,50.885506
2022-12-06T03:46:31.652Z,50.885487
2022-12-06T03:47:31.510Z,50.885529
2022-12-06T03:48:31.687Z,50.885525
2022-12-06T03:49:31.514Z,50.885551
2022-12-06T03:50:31.526Z,50.885479
2022-12-06T03:51:31.523Z,50.885460
2022-12-06T03:52:31.479Z,50.885422
2022-12-06T03:53:31.619Z,50.885567
2022-12-06T03:54:31.475Z,50.885548
2022-12-06T03:55:32.499Z,50.885479
2022-12-06T03:56:31.513Z,50.885441
2022-12-06T03:57:31.472Z,50.885494
2022-12-06T03:58:31.515Z,50.885437
2022-12-06T03:59:31.606Z,50.885426
2022-12-06T04:00:31.440Z,50.885502
2022-12-06T04:01:31.490Z,50.885471
2022-12-06T04:02:31.433Z,50.885571
2022-12-06T04:03:31.485Z,50.885555
2022-12-06T04:04:31.569Z,50.885521
2022-12-06T04:05:31.423Z,50.885376
2022-12-06T04:06:31.450Z,50.885521
2022-12-06T04:07:31.508Z,50.885605
2022-12-06T04:08:31.373Z,50.885628
2022-12-06T04:09:31.416Z,50.885612
2022-12-06T04:10:31.474Z,50.885555
2022-12-06T04:11:31.368Z,50.885517
2022-12-06T04:12:31.468Z,50.885586
2022-12-06T04:13:31.410Z,50.885582
2022-12-06T04:14:31.473Z,50.885479
2022-12-06T04:15:31.517Z,50.885731
2022-12-06T04:16:31.403Z,50.885693
2022-12-06T04:17:31.392Z,50.885593
2022-12-06T04:18:31.397Z,50.885509
2022-12-06T04:19:31.349Z,50.885506
2022-12-06T04:20:31.373Z,50.885532
2022-12-06T04:21:31.410Z,50.885548
2022-12-06T04:22:31.377Z,50.885498
2022-12-06T04:23:31.366Z,50.885635
2022-12-06T04:24:31.308Z,50.885555
2022-12-06T04:25:31.307Z,50.885498
2022-12-06T04:26:31.460Z,50.885395
2022-12-06T04:27:31.376Z,50.885395
2022-12-06T04:28:31.316Z,50.885471
2022-12-06T04:29:31.996Z,50.885601
2022-12-06T04:30:31.287Z,50.885532
2022-12-06T04:31:31.329Z,50.885487
2022-12-06T04:32:31.289Z,50.885624
2022-12-06T04:33:31.313Z,50.885628
2022-12-06T04:34:31.306Z,50.885571
2022-12-06T04:35:31.285Z,50.885357
2022-12-06T04:36:31.258Z,50.885548
2022-12-06T04:37:31.364Z,50.885471
2022-12-06T04:38:31.245Z,50.885586
2022-12-06T04:39:31.255Z,50.885494
2022-12-06T04:40:31.240Z,50.885471
2022-12-06T04:41:31.252Z,50.885502
2022-12-06T04:42:31.256Z,50.885616
2022-12-06T04:43:31.262Z,50.885509
2022-12-06T04:44:31.219Z,50.885120
2022-12-06T04:45:31.229Z,50.885483
2022-12-06T04:46:31.255Z,50.885700
2022-12-06T04:47:31.196Z,50.885609
2022-12-06T04:48:31.285Z,50.885601
2022-12-06T04:49:31.191Z,50.885475
2022-12-06T04:50:31.194Z,50.885506
2022-12-06T04:51:31.194Z,50.885544
2022-12-06T04:52:35.414Z,50.885517
2022-12-06T04:53:32.179Z,50.885582
2022-12-06T04:54:31.152Z,50.885559
2022-12-06T04:55:31.195Z,50.885548
2022-12-06T04:56:31.191Z,50.885475
2022-12-06T04:57:31.157Z,50.885548
2022-12-06T04:58:31.148Z,50.885601
2022-12-06T04:59:31.169Z,50.885658
2022-12-06T05:00:31.193Z,50.885464
2022-12-06T05:01:31.121Z,50.885471
2022-12-06T05:02:31.148Z,50.885460
2022-12-06T05:03:31.219Z,50.885555
2022-12-06T05:04:31.130Z,50.885784
2022-12-06T05:05:31.125Z,50.885685
2022-12-06T05:06:31.098Z,50.885628
2022-12-06T05:07:31.169Z,50.885574
2022-12-06T05:08:31.133Z,50.885315
2022-12-06T05:09:31.079Z,50.885414
2022-12-06T05:10:31.186Z,50.885601
2022-12-06T05:11:31.075Z,50.885616
2022-12-06T05:12:31.090Z,50.885624
2022-12-06T05:13:31.027Z,50.885761
2022-12-06T05:14:31.086Z,50.885643
2022-12-06T05:15:31.115Z,50.885681
2022-12-06T05:16:31.138Z,50.885677
2022-12-06T05:17:31.051Z,50.885593
2022-12-06T05:18:31.041Z,50.885567
2022-12-06T05:19:31.015Z,50.885647
2022-12-06T05:20:31.011Z,50.885574
2022-12-06T05:21:31.116Z,50.885670
2022-12-06T05:22:31.036Z,50.885666
2022-12-06T05:23:31.031Z,50.885567
2022-12-06T05:24:30.963Z,50.885483
2022-12-06T05:25:30.975Z,50.885441
2022-12-06T05:26:31.044Z,50.885563
2022-12-06T05:27:35.811Z,50.885586
2022-12-06T05:28:31.988Z,50.885555
2022-12-06T05:29:30.948Z,50.885525
2022-12-06T05:30:30.996Z,50.885521
2022-12-06T05:31:31.011Z,50.885551
2022-12-06T05:32:30.984Z,50.885590
2022-12-06T05:33:30.970Z,50.885525
2022-12-06T05:34:31.000Z,50.885540
2022-12-06T05:35:30.950Z,50.885529
2022-12-06T05:36:30.947Z,50.885578
2022-12-06T05:37:31.147Z,50.885525
2022-12-06T05:38:30.955Z,50.885784
2022-12-06T05:39:30.940Z,50.885674
2022-12-06T05:40:30.946Z,50.885696
2022-12-06T05:41:30.956Z,50.885639
2022-12-06T05:42:30.962Z,50.885567
2022-12-06T05:43:30.928Z,50.885464
2022-12-06T05:44:30.938Z,50.885578
2022-12-06T05:45:30.987Z,50.885605
2022-12-06T05:46:30.868Z,50.885597
2022-12-06T05:47:30.921Z,50.885494
2022-12-06T05:48:30.883Z,50.885387
2022-12-06T05:49:30.877Z,50.885468
2022-12-06T05:50:30.873Z,50.885319
2022-12-06T05:51:30.899Z,50.885319
2022-12-06T05:52:30.860Z,50.885345
2022-12-06T05:53:30.822Z,50.885475
2022-12-06T05:54:30.879Z,50.885620
2022-12-06T05:55:30.870Z,50.885708
2022-12-06T05:56:30.861Z,50.885723
2022-12-06T05:57:30.848Z,50.885666
2022-12-06T05:58:30.824Z,50.885509
2022-12-06T05:59:30.862Z,50.885548
2022-12-06T06:00:30.794Z,50.885471
2022-12-06T06:01:30.789Z,50.885452
2022-12-06T06:02:31.172Z,50.885597
2022-12-06T06:03:30.869Z,50.885517
2022-12-06T06:04:30.779Z,50.885605
2022-12-06T06:05:30.926Z,50.885551
2022-12-06T06:06:30.795Z,50.885529
2022-12-06T06:07:30.805Z,50.885601
2022-12-06T06:08:30.807Z,50.885437
2022-12-06T06:09:30.826Z,50.885544
2022-12-06T06:10:30.753Z,50.885616
2022-12-06T06:11:30.731Z,50.885616
2022-12-06T06:12:30.730Z,50.885494
2022-12-06T06:13:30.748Z,50.885563
2022-12-06T06:14:30.753Z,50.885498
2022-12-06T06:15:30.731Z,50.885567
2022-12-06T06:16:31.864Z,50.885586
2022-12-06T06:17:30.730Z,50.885471
2022-12-06T06:18:30.701Z,50.885555
2022-12-06T06:19:30.719Z,50.885517
2022-12-06T06:20:30.692Z,50.885593
2022-12-06T06:21:30.707Z,50.885616
2022-12-06T06:22:30.739Z,50.885590
2022-12-06T06:23:30.693Z,50.885620
2022-12-06T06:24:30.652Z,50.885509
2022-12-06T06:25:30.697Z,50.885483
2022-12-06T06:26:31.144Z,50.885437
2022-12-06T06:27:30.817Z,50.885628
2022-12-06T06:28:30.632Z,50.885620
2022-12-06T06:29:30.659Z,50.885586
2022-12-06T06:30:30.682Z,50.885403
2022-12-06T06:31:30.718Z,50.885353
2022-12-06T06:32:30.621Z,50.885399
2022-12-06T06:33:30.670Z,50.885513
2022-12-06T06:34:30.637Z,50.885448
2022-12-06T06:35:30.647Z,50.885376
2022-12-06T06:36:30.637Z,50.885441
2022-12-06T06:37:30.651Z,50.885498
2022-12-06T06:38:30.673Z,50.885643
2022-12-06T06:39:30.591Z,50.885616
2022-12-06T06:40:30.617Z,50.885567
2022-12-06T06:41:30.579Z,50.885395
2022-12-06T06:42:30.620Z,50.885174
2022-12-06T06:43:30.578Z,50.885303
2022-12-06T06:44:30.622Z,50.885433
2022-12-06T06:45:30.555Z,50.885502
2022-12-06T06:46:30.580Z,50.885513
2022-12-06T06:47:30.548Z,50.885525
2022-12-06T06:48:30.577Z,50.885098
2022-12-06T06:49:30.588Z,50.885040
2022-12-06T06:50:30.568Z,50.884911
2022-12-06T06:51:30.516Z,50.884911
2022-12-06T06:52:30.544Z,50.884659
2022-12-06T06:53:30.564Z,50.884659
2022-12-06T06:54:30.526Z,50.884659
2022-12-06T06:55:30.609Z,50.884659
2022-12-06T06:56:30.533Z,50.884659
2022-12-06T06:57:30.473Z,50.884659
2022-12-06T06:58:30.499Z,50.885094
2022-12-06T06:59:30.482Z,50.885727
2022-12-06T07:01:02.605Z,50.885853
2022-12-06T07:01:30.540Z,50.885918
2022-12-06T07:02:30.531Z,50.885548
2022-12-06T07:03:30.454Z,50.885445
2022-12-06T07:04:30.488Z,50.885548
2022-12-06T07:05:30.448Z,50.885586
2022-12-06T07:06:30.507Z,50.885635
2022-12-06T07:07:30.472Z,50.885788
2022-12-06T07:08:30.447Z,50.885735
2022-12-06T07:09:30.407Z,50.885742
2022-12-06T07:10:30.457Z,50.885750
2022-12-06T07:11:30.481Z,50.885536
2022-12-06T07:12:30.417Z,50.885708
2022-12-06T07:13:30.438Z,50.885506
2022-12-06T07:14:30.418Z,50.885429
2022-12-06T07:15:30.436Z,50.885456
2022-12-06T07:16:30.510Z,50.885433
2022-12-06T07:17:31.434Z,50.885490
2022-12-06T07:18:30.414Z,50.885643
2022-12-06T07:19:30.417Z,50.885685
2022-12-06T07:20:30.392Z,50.885712
2022-12-06T07:21:30.422Z,50.885509
2022-12-06T07:22:30.500Z,50.885620
2022-12-06T07:23:30.396Z,50.885475
2022-12-06T07:24:30.369Z,50.885452
2022-12-06T07:25:30.388Z,50.885448
2022-12-06T07:26:30.347Z,50.885426
2022-12-06T07:27:30.347Z,50.885265
2022-12-06T07:28:30.372Z,50.885372
2022-12-06T07:29:30.339Z,50.885334
2022-12-06T07:30:30.351Z,50.885406
2022-12-06T07:31:30.372Z,50.885422
2022-12-06T07:32:30.315Z,50.885399
2022-12-06T07:33:30.327Z,50.885414
2022-12-06T07:34:30.350Z,50.885262
2022-12-06T07:35:55.456Z,50.885338
2022-12-06T07:36:31.403Z,50.885303
2022-12-06T07:37:30.278Z,50.885326
2022-12-06T07:38:30.296Z,50.885349
2022-12-06T07:39:30.480Z,50.885307
2022-12-06T07:40:56.018Z,50.885391
2022-12-06T07:41:31.293Z,50.885483
2022-12-06T07:42:30.237Z,50.885490
2022-12-06T07:43:30.244Z,50.885254
2022-12-06T07:44:30.353Z,50.885345
2022-12-06T07:45:30.256Z,50.885353
2022-12-06T07:46:30.335Z,50.885487
2022-12-06T07:47:30.236Z,50.885437
2022-12-06T07:48:30.214Z,50.885418
2022-12-06T07:49:30.236Z,50.885651
2022-12-06T07:50:30.322Z,50.885544
2022-12-06T07:51:30.201Z,50.885326
2022-12-06T07:52:30.193Z,50.885456
2022-12-06T07:53:30.178Z,50.885277
2022-12-06T07:54:30.224Z,50.885365
2022-12-06T07:55:30.240Z,50.885368
2022-12-06T07:56:30.206Z,50.885494
2022-12-06T07:57:30.210Z,50.885487
2022-12-06T07:58:30.199Z,50.885513
2022-12-06T07:59:30.213Z,50.885475
2022-12-06T08:00:30.187Z,50.885429
2022-12-06T08:01:30.336Z,50.885197
2022-12-06T08:02:30.170Z,50.885296
2022-12-06T08:03:30.158Z,50.885353
2022-12-06T08:04:30.219Z,50.885288
2022-12-06T08:05:30.174Z,50.885365
2022-12-06T08:06:30.215Z,50.885635
2022-12-06T08:07:30.154Z,50.885555
2022-12-06T08:08:30.208Z,50.885483
2022-12-06T08:09:30.100Z,50.885563
2022-12-06T08:10:30.127Z,50.885601
2022-12-06T08:11:30.097Z,50.885544
2022-12-06T08:12:31.061Z,50.885685
2022-12-06T08:13:30.118Z,50.885521
2022-12-06T08:14:30.161Z,50.885475
2022-12-06T08:15:30.066Z,50.885559
2022-12-06T08:16:30.167Z,50.885468
2022-12-06T08:17:30.115Z,50.885544
2022-12-06T08:18:30.081Z,50.885498
2022-12-06T08:19:30.065Z,50.885521
2022-12-06T08:20:30.068Z,50.885532
2022-12-06T08:21:30.036Z,50.885536
2022-12-06T08:22:30.065Z,50.885586
2022-12-06T08:23:34.181Z,50.885517
2022-12-06T08:24:30.053Z,50.885643
2022-12-06T08:25:30.051Z,50.885632
2022-12-06T08:26:30.018Z,50.885677
2022-12-06T08:27:30.056Z,50.885506
2022-12-06T08:28:30.093Z,50.885483
2022-12-06T08:29:30.033Z,50.885559
2022-12-06T08:30:30.022Z,50.885559
2022-12-06T08:31:30.110Z,50.885395
2022-12-06T08:32:29.994Z,50.885551
2022-12-06T08:33:29.999Z,50.885525
2022-12-06T08:34:30.116Z,50.885654
2022-12-06T08:35:30.012Z,50.885586
2022-12-06T08:36:29.963Z,50.885586
2022-12-06T08:37:29.969Z,50.885368
2022-12-06T08:38:29.950Z,50.885361
2022-12-06T08:39:30.004Z,50.885273
2022-12-06T08:40:29.952Z,50.885464
2022-12-06T08:41:29.974Z,50.885712
2022-12-06T08:42:29.965Z,50.885540
2022-12-06T08:43:29.956Z,50.885517
2022-12-06T08:44:29.923Z,50.885487
2022-12-06T08:45:30.061Z,50.885197
2022-12-06T08:46:30.082Z,50.885136
2022-12-06T08:47:29.903Z,50.885365
2022-12-06T08:48:29.922Z,50.885605
2022-12-06T08:49:29.911Z,50.885586
2022-12-06T08:50:29.922Z,50.885532
2022-12-06T08:51:29.887Z,50.885677
2022-12-06T08:52:29.870Z,50.885567
2022-12-06T08:53:29.872Z,50.885662
2022-12-06T08:54:29.899Z,50.885754
2022-12-06T08:55:29.889Z,50.885807
2022-12-06T08:56:30.008Z,50.885799
2022-12-06T08:57:29.859Z,50.885780
2022-12-06T08:58:29.886Z,50.885715
2022-12-06T08:59:29.841Z,50.885559
2022-12-06T09:00:29.865Z,50.885422
2022-12-06T09:01:35.706Z,50.885578
2022-12-06T09:02:31.844Z,50.885525
2022-12-06T09:03:29.810Z,50.885735
2022-12-06T09:04:29.927Z,50.885624
2022-12-06T09:05:29.804Z,50.885628
2022-12-06T09:06:29.806Z,50.885559
2022-12-06T09:07:29.937Z,50.885666
2022-12-06T09:08:29.845Z,50.885788
2022-12-06T09:09:29.823Z,50.885727
2022-12-06T09:10:29.786Z,50.885693
2022-12-06T09:11:29.795Z,50.885605
2022-12-06T09:12:29.778Z,50.885559
2022-12-06T09:13:29.806Z,50.885311
2022-12-06T09:14:29.774Z,50.885277
2022-12-06T09:15:29.778Z,50.885300
2022-12-06T09:16:29.779Z,50.885357
2022-12-06T09:17:29.742Z,50.885429
2022-12-06T09:18:29.846Z,50.885464
2022-12-06T09:19:29.771Z,50.885452
2022-12-06T09:20:29.731Z,50.885395
2022-12-06T09:21:29.725Z,50.885513
2022-12-06T09:22:29.734Z,50.885960
2022-12-06T09:23:29.731Z,50.885586
2022-12-06T09:24:29.734Z,50.885418
2022-12-06T09:25:29.713Z,50.885605
2022-12-06T09:26:29.716Z,50.885330
2022-12-06T09:27:29.693Z,50.885437
2022-12-06T09:28:29.712Z,50.885620
2022-12-06T09:29:29.812Z,50.885452
2022-12-06T09:30:29.698Z,50.885548
2022-12-06T09:31:29.725Z,50.885803
2022-12-06T09:32:29.661Z,50.885551
2022-12-06T09:33:29.689Z,50.885513
2022-12-06T09:34:29.796Z,50.885513
2022-12-06T09:35:29.644Z,50.885513
2022-12-06T09:36:29.651Z,50.885830
2022-12-06T09:37:29.663Z,50.885494
2022-12-06T09:38:29.630Z,50.885620
2022-12-06T09:39:29.651Z,50.885609
2022-12-06T09:40:29.642Z,50.885632
2022-12-06T09:41:29.637Z,50.885536
2022-12-06T09:42:29.620Z,50.885361
2022-12-06T09:43:29.670Z,50.885117
2022-12-06T09:44:29.616Z,50.885365
2022-12-06T09:45:29.738Z,50.885593
2022-12-06T09:46:29.700Z,50.885735
2022-12-06T09:47:29.559Z,50.885612
2022-12-06T09:48:29.596Z,50.885635
2022-12-06T09:49:29.596Z,50.885754
2022-12-06T09:50:30.578Z,50.885693
2022-12-06T09:51:29.604Z,50.885460
2022-12-06T09:52:29.558Z,50.885201
2022-12-06T09:53:29.519Z,50.885323
2022-12-06T09:54:29.556Z,50.885754
2022-12-06T09:55:29.550Z,50.885895
2022-12-06T09:56:29.556Z,50.886177
2022-12-06T09:57:29.538Z,50.886024
2022-12-06T09:58:29.573Z,50.886097
2022-12-06T09:59:29.510Z,50.886257
2022-12-06T10:00:29.509Z,50.886555
2022-12-06T10:01:29.691Z,50.886475
2022-12-06T10:02:29.550Z,50.886646
2022-12-06T10:03:29.594Z,50.886326
2022-12-06T10:04:29.487Z,50.886055
2022-12-06T10:05:29.490Z,50.885761
2022-12-06T10:06:29.469Z,50.885544
2022-12-06T10:07:29.514Z,50.885609
2022-12-06T10:08:29.613Z,50.885502
2022-12-06T10:09:29.491Z,50.885635
2022-12-06T10:10:29.447Z,50.886009
2022-12-06T10:11:29.518Z,50.886417
2022-12-06T10:12:29.444Z,50.886555
2022-12-06T10:13:29.461Z,50.886322
2022-12-06T10:14:29.513Z,50.886356
2022-12-06T10:15:29.439Z,50.886238
2022-12-06T10:16:29.500Z,50.886189
2022-12-06T10:17:29.418Z,50.886051
2022-12-06T10:18:30.109Z,50.885838
2022-12-06T10:19:29.499Z,50.885929
2022-12-06T10:20:29.395Z,50.885952
2022-12-06T10:21:29.467Z,50.885979
2022-12-06T10:22:29.391Z,50.885872
2022-12-06T10:23:29.505Z,50.885693
2022-12-06T10:24:29.364Z,50.885719
2022-12-06T10:25:29.437Z,50.885681
2022-12-06T10:26:29.385Z,50.885677
2022-12-06T10:27:29.384Z,50.885521
2022-12-06T10:28:29.394Z,50.885468
2022-12-06T10:29:30.034Z,50.885479
2022-12-06T10:30:29.317Z,50.885582
2022-12-06T10:31:29.437Z,50.885609
2022-12-06T10:32:29.348Z,50.885567
2022-12-06T10:33:29.319Z,50.885532
2022-12-06T10:34:29.452Z,50.885525
2022-12-06T10:35:29.350Z,50.885582
2022-12-06T10:36:29.323Z,50.885605
2022-12-06T10:37:29.304Z,50.885681
2022-12-06T10:38:29.284Z,50.885658
2022-12-06T10:39:29.303Z,50.885601
2022-12-06T10:40:29.325Z,50.885548
2022-12-06T10:41:29.334Z,50.885635
2022-12-06T10:42:29.279Z,50.885654
2022-12-06T10:43:29.254Z,50.885666
2022-12-06T10:44:29.270Z,50.885590
2022-12-06T10:45:29.300Z,50.885490
2022-12-06T10:46:29.331Z,50.885544
2022-12-06T10:47:29.237Z,50.885548
2022-12-06T10:48:29.229Z,50.885548
2022-12-06T10:49:29.268Z,50.885681
2022-12-06T10:50:29.239Z,50.885616
2022-12-06T10:51:29.278Z,50.885834
2022-12-06T10:52:29.215Z,50.885880
2022-12-06T10:53:29.242Z,50.885975
2022-12-06T10:54:29.197Z,50.886078
2022-12-06T10:55:29.193Z,50.885887
2022-12-06T10:56:29.223Z,50.885674
2022-12-06T10:57:29.195Z,50.885529
2022-12-06T10:58:29.190Z,50.885517
2022-12-06T10:59:29.168Z,50.885605
2022-12-06T11:00:29.279Z,50.885429
2022-12-06T11:01:29.217Z,50.885658
2022-12-06T11:02:29.258Z,50.885658
2022-12-06T11:03:29.169Z,50.885708
2022-12-06T11:04:29.128Z,50.885639
2022-12-06T11:05:29.133Z,50.885754
2022-12-06T11:06:29.146Z,50.885654
2022-12-06T11:07:29.258Z,50.885620
2022-12-06T11:08:29.172Z,50.885715
2022-12-06T11:09:29.092Z,50.885860
2022-12-06T11:10:29.120Z,50.885689
2022-12-06T11:11:29.142Z,50.885445
2022-12-06T11:12:31.455Z,50.885563
2022-12-06T11:13:30.113Z,50.885448
2022-12-06T11:14:29.114Z,50.885532
2022-12-06T11:15:29.077Z,50.885559
2022-12-06T11:16:29.139Z,50.885620
2022-12-06T11:17:29.208Z,50.885601
2022-12-06T11:18:29.079Z,50.885563
2022-12-06T11:19:29.082Z,50.885464
2022-12-06T11:20:29.034Z,50.885429
2022-12-06T11:21:29.013Z,50.885555
2022-12-06T11:22:29.028Z,50.885414
2022-12-06T11:23:29.061Z,50.885387
2022-12-06T11:24:29.004Z,50.885464